Latest Coastal Weather Observations for Port Fairy

IDV60701

Issued at 7:52 pm EST Monday 4 May 2026 (issued every 10 minutes, with the page automatically refreshed every 10 minutes)

About coastal observations | Map of coastal stations | Coastal observations for VIC | Marine services | Other Formats
Station Details ID: 090175 Name: PORT FAIRY AWS Lat: -38.39 Lon: 142.23 Height: 10.0 m
Data from the previous 72 hours. | See also: Recent months at Port Fairy
Date/Time
EST
Wind Sea
Height
m
Swell Vis
km
Cloud Weather Temp
°C
Press
MSL
hPa
Rain since
9am
mm
Dir  Spd
kts
Gust
kts
Height
m
Period
s
Dir
04/07:36pm W 18 30 - - - - - - - 14.0 1011.1 2.2
04/07:30pm WSW 20 28 - - - - - - - 14.2 1010.9 2.2
04/07:09pm WSW 20 30 - - - - - - - 13.9 1010.4 2.2
04/07:00pm WSW 20 28 - - - - - - - 14.2 1010.2 2.2
04/06:30pm WSW 21 31 - - - - - - - 13.9 1009.5 2.2
04/06:00pm W 20 28 - - - - - - - 14.1 1008.7 1.8
04/05:32pm W 20 33 - - - - - - - 13.9 1008.1 1.8
04/05:30pm W 20 27 - - - - - - - 13.9 1008.1 1.8
04/05:04pm W 17 29 - - - - - - - 13.6 1007.9 1.8
04/05:00pm W 16 25 - - - - - - - 13.9 1007.8 1.8
04/04:43pm W 15 28 - - - - - - - 14.0 1007.5 1.6
04/04:30pm WNW 14 23 - - - - - - - 13.9 1007.2 1.6
04/04:04pm WNW 15 29 - - - - - - - 14.4 1006.7 1.6
04/04:00pm WNW 13 22 - - - - - - - 14.8 1006.6 1.0
04/03:30pm WNW 15 24 - - - - - - - 14.6 1006.1 1.0
04/03:00pm NW 11 19 - - - - - - Recent precip. 15.0 1005.7 0.4
04/02:30pm NW 11 18 - - - - - - - 15.3 1005.6 0.2
04/02:00pm NW 12 20 - - - - - - - 14.8 1005.4 0.0
04/01:50pm NNW 15 27 - - - - - - - 15.3 1005.2 0.0
04/01:30pm NNW 13 22 - - - - - - - 15.9 1005.1 0.0
04/01:00pm NNW 16 25 - - - - - - - 16.9 1005.1 0.0
04/12:30pm NNW 13 23 - - - - - - - 16.8 1005.2 0.0
04/12:00pm NNW 14 24 - - - - - - - 16.8 1005.6 0.0
04/11:31am NNW 16 29 - - - - - - - 16.5 1005.7 0.0
04/11:30am NNW 16 25 - - - - - - - 16.7 1005.7 0.0
04/11:00am NNW 15 30 - - - - - - - 15.7 1005.9 0.0
04/10:51am NNW 15 27 - - - - - - - 15.4 1005.7 0.0
04/10:30am NNW 13 21 - - - - - - - 15.2 1005.9 0.0
04/10:00am N 13 20 - - - - - - - 14.9 1005.9 0.0
04/09:30am N 13 20 - - - - - - - 14.6 1006.0 0.0
04/09:00am N 13 20 - - - - - - - 14.2 1006.1 0.0
04/08:30am N 10 16 - - - - - - - 13.8 1006.2 0.0
04/08:00am N 10 17 - - - - - - - 13.3 1006.0 0.0
04/07:30am N 10 15 - - - - - - - 13.0 1005.8 0.0
04/07:00am N 11 18 - - - - - - - 12.6 1005.7 0.0
04/06:30am N 10 17 - - - - - - - 12.4 1005.7 0.0
04/06:00am N 11 17 - - - - - - - 12.3 1005.5 0.0
04/05:30am N 11 18 - - - - - - - 12.0 1005.9 0.0
04/05:00am N 10 17 - - - - - - - 11.9 1006.0 0.0
04/04:30am N 10 17 - - - - - - - 12.0 1006.0 0.0
04/04:00am N 10 16 - - - - - - - 12.1 1006.2 0.0
04/03:30am N 8 12 - - - - - - - 11.7 1006.7 0.0
04/03:00am N 7 11 - - - - - - - 11.4 1007.1 0.0
04/02:30am N 8 12 - - - - - - - 11.6 1007.4 0.0
04/02:00am N 8 12 - - - - - - - 12.0 1007.6 0.0
04/01:30am N 9 14 - - - - - - - 12.9 1007.6 0.0
04/01:00am N 9 13 - - - - - - - 13.0 1007.8 0.0
04/12:30am N 8 14 - - - - - - - 13.3 1007.9 0.0
04/12:00am N 8 12 - - - - - - - 13.7 1008.3 0.0
 
Date/Time
EST
Wind Sea
Height
m
Swell Vis
km
Cloud Weather Temp
°C
Press
MSL
hPa
Rain since
9am
mm
Dir  Spd
kts
Gust
kts
Height
m
Period
s
Dir
03/11:30pm N 9 16 - - - - - - - 14.2 1008.8 0.0
03/11:00pm N 11 19 - - - - - - - 15.0 1009.1 0.0
03/10:30pm N 9 15 - - - - - - - 14.4 1009.4 0.0
03/10:00pm N 8 13 - - - - - - - 14.2 1009.4 0.0
03/09:30pm N 7 11 - - - - - - - 14.3 1009.3 0.0
03/09:00pm N 7 11 - - - - - - - 14.2 1009.2 0.0
03/08:30pm N 10 16 - - - - - - - 15.0 1009.2 0.0
03/08:00pm N 8 13 - - - - - - - 14.7 1009.3 0.0
03/07:30pm N 7 11 - - - - - - - 15.3 1009.0 0.0
03/07:00pm NNW 8 14 - - - - - - - 15.3 1008.9 0.0
03/06:30pm N 8 12 - - - - - - - 15.2 1008.4 0.0
03/06:00pm N 7 12 - - - - - - - 15.9 1008.2 0.0
03/05:30pm N 8 12 - - - - - - - 16.2 1007.9 0.0
03/05:00pm N 11 18 - - - - - - - 17.0 1007.7 0.0
03/04:30pm N 9 12 - - - - - - - 17.8 1007.6 0.0
03/04:00pm N 8 15 - - - - - - - 17.8 1007.6 0.0
03/03:30pm NNW 9 16 - - - - - - - 17.7 1007.7 0.0
03/03:00pm NNW 12 20 - - - - - - - 18.6 1007.7 0.0
03/02:30pm NNW 10 19 - - - - - - - 18.8 1007.6 0.0
03/02:00pm NNW 10 18 - - - - - - - 19.5 1007.6 0.0
03/01:30pm NNW 9 16 - - - - - - - 19.5 1008.0 0.0
03/01:00pm NNW 11 19 - - - - - - - 18.4 1008.3 0.0
03/12:30pm N 9 18 - - - - - - - 18.0 1008.5 0.0
03/12:00pm NNW 11 16 - - - - - - - 16.6 1008.9 0.0
03/11:30am NNW 11 18 - - - - - - - 16.4 1009.0 0.0
03/11:00am N 11 18 - - - - - - - 16.7 1008.9 0.0
03/10:30am N 8 14 - - - - - - - 16.2 1008.8 0.0
03/10:00am N 9 13 - - - - - - - 14.4 1009.1 0.0
03/09:30am N 7 11 - - - - - - - 13.8 1009.1 0.0
03/09:00am N 5 9 - - - - - - - 13.5 1009.2 14.8
03/08:30am NNE 4 6 - - - - - - - 13.1 1008.8 14.8
03/08:00am N 5 8 - - - - - - - 12.7 1008.9 14.8
03/07:30am N 3 5 - - - - - - - 12.5 1008.7 14.4
03/07:00am NNE 4 6 - - - - - - - 12.4 1008.8 13.8
03/06:49am N 5 7 - - - - - - - 12.3 1008.9 13.8
03/06:30am NNE 4 8 - - - - - - - 12.7 1008.8 11.6
03/06:28am NE 3 5 - - - - - - - 12.6 1008.4 11.6
03/06:12am NNE 4 7 - - - - - - - 12.7 1008.8 11.6
03/06:02am N 6 13 - - - - - - - 12.9 1009.4 11.6
03/06:00am N 5 13 - - - - - - Rain 13.1 1009.4 10.8
03/05:30am NNE 4 6 - - - - - - - 13.2 1009.0 9.6
03/05:00am N 2 4 - - - - - - - 13.7 1009.0 8.2
03/04:30am NNW 1 4 - - - - - - - 13.8 1008.5 8.2
03/04:00am N 3 5 - - - - - - - 14.2 1009.2 8.0
03/03:30am W 3 5 - - - - - - - 14.1 1009.0 7.2
03/03:00am NW 9 17 - - - - - - Recent precip. 15.4 1009.7 7.0
03/02:30am N 6 10 - - - - - - - 15.7 1009.1 6.6
03/02:00am NNE 4 7 - - - - - - - 15.9 1009.3 2.8
03/01:30am NNE 5 7 - - - - - - - 15.9 1009.4 2.4
03/01:00am N 5 7 - - - - - - - 16.1 1009.7 2.0
03/12:30am NNE 5 9 - - - - - - - 16.3 1009.9 2.0
03/12:00am NNE 8 14 - - - - - - Recent precip. 16.3 1010.0 2.0
 
Date/Time
EST
Wind Sea
Height
m
Swell Vis
km
Cloud Weather Temp
°C
Press
MSL
hPa
Rain since
9am
mm
Dir  Spd
kts
Gust
kts
Height
m
Period
s
Dir
02/11:30pm NNE 7 11 - - - - - - - 16.1 1010.1 2.0
02/11:00pm NNE 6 11 - - - - - - - 15.9 1010.7 1.8
02/10:30pm NNE 6 9 - - - - - - - 15.9 1010.8 1.8
02/10:00pm N 7 10 - - - - - - - 16.2 1011.7 1.4
02/09:30pm N 9 14 - - - - - - - 16.9 1011.5 0.2
02/09:00pm N 8 13 - - - - - - - 17.7 1011.3 0.0
02/08:30pm N 9 13 - - - - - - - 18.6 1011.5 0.0
02/08:00pm N 8 13 - - - - - - - 19.2 1011.1 0.0
02/07:30pm NNE 12 19 - - - - - - - 19.5 1010.7 0.0
02/07:00pm NNE 11 20 - - - - - - - 19.8 1010.6 0.0
02/06:30pm NNE 11 18 - - - - - - - 20.1 1010.4 0.0
02/06:00pm NNE 11 19 - - - - - - - 20.8 1009.8 0.0
02/05:30pm NNE 11 19 - - - - - - - 21.0 1009.6 0.0
02/05:00pm NNE 9 15 - - - - - - - 21.0 1009.7 0.0
02/04:30pm NNE 11 21 - - - - - - - 22.2 1009.8 0.0
02/04:06pm N 10 26 - - - - - - - 22.2 1010.2 0.0
02/04:00pm N 7 11 - - - - - - - 21.6 1010.2 0.0
02/03:30pm N 10 16 - - - - - - - 23.3 1010.2 0.0
02/03:00pm N 12 18 - - - - - - - 24.1 1009.9 0.0
02/02:44pm N 15 28 - - - - - - - 24.8 1009.8 0.0
02/02:30pm N 15 24 - - - - - - - 24.5 1009.6 0.0
02/02:00pm N 12 19 - - - - - - - 23.9 1009.8 0.0
02/01:30pm NNE 15 29 - - - - - - - 25.3 1010.1 0.0
02/01:00pm NNE 12 19 - - - - - - - 23.7 1010.5 0.0
02/12:30pm NNE 12 21 - - - - - - - 22.6 1010.9 0.0
02/12:00pm NNE 8 12 - - - - - - - 23.8 1011.7 0.0
02/11:30am N 12 21 - - - - - - - 23.9 1012.3 0.0
02/11:00am N 11 18 - - - - - - - 23.3 1012.6 0.0
02/10:30am NNE 8 13 - - - - - - - 21.5 1012.8 0.0
02/10:00am NNE 8 13 - - - - - - - 20.9 1013.2 0.0
02/09:30am NNE 7 12 - - - - - - - 20.0 1013.5 0.0
02/09:00am NNE 8 12 - - - - - - - 19.2 1013.7 0.0
02/08:30am NNE 9 17 - - - - - - - 19.3 1013.7 0.0
02/08:00am NNE 7 11 - - - - - - - 18.7 1013.7 0.0
02/07:30am NNE 9 15 - - - - - - - 18.9 1013.7 0.0
02/07:00am NNE 8 12 - - - - - - - 18.1 1013.7 0.0
02/06:30am NNE 9 13 - - - - - - - 18.1 1013.7 0.0
02/06:00am NNE 8 13 - - - - - - - 18.0 1013.7 0.0
02/05:30am NNE 8 13 - - - - - - - 17.9 1013.9 0.0
02/05:00am NNE 8 12 - - - - - - - 17.8 1013.8 0.0
02/04:30am NNE 8 12 - - - - - - - 17.7 1014.0 0.0
02/04:00am NNE 9 15 - - - - - - - 18.0 1014.3 0.0
02/03:30am NNE 9 13 - - - - - - - 18.2 1014.5 0.0
02/03:00am NE 8 13 - - - - - - - 17.9 1014.9 0.0
02/02:30am NNE 9 12 - - - - - - - 18.1 1015.3 0.0
02/02:00am NNE 10 14 - - - - - - - 18.5 1015.6 0.0
02/01:30am NNE 9 14 - - - - - - - 18.7 1015.9 0.0
02/01:00am NNE 10 14 - - - - - - - 18.5 1016.1 0.0
02/12:30am NNE 10 13 - - - - - - - 18.6 1016.4 0.0
02/12:00am NNE 8 12 - - - - - - - 19.1 1016.8 0.0
 
Date/Time
EST
Wind Sea
Height
m
Swell Vis
km
Cloud Weather Temp
°C
Press
MSL
hPa
Rain since
9am
mm
Dir  Spd
kts
Gust
kts
Height
m
Period
s
Dir
01/11:30pm NNE 8 12 - - - - - - - 19.0 1017.0 0.0
01/11:00pm NNE 8 13 - - - - - - - 19.5 1017.3 0.0
01/10:30pm NNE 8 12 - - - - - - - 19.5 1017.6 0.0
01/10:00pm NNE 8 13 - - - - - - - 19.7 1017.8 0.0
01/09:30pm NNE 8 12 - - - - - - - 19.2 1017.9 0.0
01/09:00pm NNE 7 11 - - - - - - - 19.3 1018.0 0.0
01/08:30pm NNE 5 7 - - - - - - - 19.1 1018.1 0.0
01/08:00pm NNE 4 5 - - - - - - - 19.9 1018.0 0.0

Other formats

Comma delimited format used in spreadsheet applications
http://www.bom.gov.au/fwo/IDV60701/IDV60701.94830.axf

JavaScript Object Notation format (JSON) in row-major order
http://www.bom.gov.au/fwo/IDV60701/IDV60701.94830.json

Data quality

Most of these data are generated automatically and are frequently updated. Quality checks on data are not normally performed. It is possible for incorrect values to appear. Refer to information at About Latest Weather Observations and please check the disclaimer before using these data.